Time;durP1;ratioP1;P1;durP2;ratioP2;P2;SDS_P1;SDS_P2;PMS_P1;PMS_P2;Temp;Humidity;BMP_temperature;BMP_pressure;BME280_temperature;BME280_humidity;BME280_pressure;Samples;Min_cycle;Max_cycle;Signal;HPM_P1;HPM_P2
2021/12/20 00:01:34;;;;;;;22.52;4.47;;;7.00;99.90;;;;;;5113024;28;20207;-50
2021/12/20 00:04:00;;;;;;;8.50;4.32;;;7.00;99.90;;;;;;5112913;28;20620;-51
2021/12/20 00:06:25;;;;;;;7.82;3.97;;;7.00;99.90;;;;;;5113229;28;20530;-50
2021/12/20 00:08:51;;;;;;;9.63;3.67;;;7.00;99.90;;;;;;5112854;28;20608;-50
2021/12/20 00:11:16;;;;;;;12.05;4.28;;;7.00;99.90;;;;;;5112696;28;20235;-51
2021/12/20 00:13:42;;;;;;;5.55;3.72;;;7.00;99.90;;;;;;5112754;28;20200;-52
2021/12/20 00:16:07;;;;;;;8.07;4.10;;;7.00;99.90;;;;;;5112781;28;20180;-51
2021/12/20 00:18:33;;;;;;;7.28;3.45;;;6.90;99.90;;;;;;5112831;28;20184;-52
2021/12/20 00:20:58;;;;;;;7.55;3.83;;;7.00;99.90;;;;;;5113033;28;20172;-51
2021/12/20 00:23:24;;;;;;;8.30;4.38;;;7.00;99.90;;;;;;5112642;28;20534;-51
2021/12/20 00:25:50;;;;;;;9.52;3.58;;;6.90;99.90;;;;;;5112598;28;20169;-51
2021/12/20 00:28:17;;;;;;;8.98;3.83;;;6.90;99.90;;;;;;5111685;28;20214;-52
2021/12/20 00:30:43;;;;;;;9.27;3.65;;;6.90;99.90;;;;;;5112778;28;20263;-52
2021/12/20 00:33:08;;;;;;;7.35;3.25;;;7.00;99.90;;;;;;5112475;28;20338;-52
2021/12/20 00:35:34;;;;;;;10.50;3.58;;;6.90;99.90;;;;;;5112478;28;20176;-52
2021/12/20 00:40:43;;;;;;;5.35;3.05;;;7.00;99.90;;;;;;5112733;28;20182;-52
2021/12/20 00:43:09;;;;;;;9.57;3.10;;;6.90;99.90;;;;;;5112465;28;20161;-52
2021/12/20 00:45:37;;;;;;;6.95;3.20;;;6.90;99.90;;;;;;5112379;28;20186;-52
2021/12/20 00:48:04;;;;;;;9.60;3.65;;;6.90;99.90;;;;;;5112387;28;20165;-52
2021/12/20 00:50:30;;;;;;;9.00;3.97;;;6.90;99.90;;;;;;5112409;28;20164;-50
2021/12/20 00:52:56;;;;;;;10.82;3.15;;;6.90;99.90;;;;;;5094156;28;20201;-52
2021/12/20 00:55:24;;;;;;;10.40;3.55;;;6.90;99.90;;;;;;5112271;28;20215;-52
2021/12/20 00:57:53;;;;;;;10.07;3.58;;;6.90;99.90;;;;;;5112489;28;20530;-52
2021/12/20 01:00:22;;;;;;;8.07;3.33;;;6.90;99.90;;;;;;5112028;28;20179;-51
2021/12/20 01:02:48;;;;;;;10.15;3.55;;;7.00;99.90;;;;;;5112078;28;20173;-51
2021/12/20 01:05:14;;;;;;;8.00;3.30;;;6.90;99.90;;;;;;5111928;28;20168;-51
2021/12/20 01:07:40;;;;;;;9.30;3.08;;;6.90;99.90;;;;;;5112085;28;20243;-51
2021/12/20 01:10:08;;;;;;;12.50;3.50;;;6.90;99.90;;;;;;5111986;28;20300;-51
2021/12/20 01:12:42;;;;;;;8.30;3.72;;;6.90;99.90;;;;;;5112264;28;20545;-51
2021/12/20 01:15:10;;;;;;;13.93;2.95;;;6.90;99.90;;;;;;5112053;28;20652;-50
2021/12/20 01:17:36;;;;;;;16.63;3.40;;;6.90;99.90;;;;;;5112280;28;20270;-50
2021/12/20 01:20:03;;;;;;;11.52;3.72;;;6.90;99.90;;;;;;5112036;28;20200;-51
2021/12/20 01:22:28;;;;;;;9.25;3.25;;;6.90;99.90;;;;;;5112202;28;20176;-51
2021/12/20 01:24:54;;;;;;;6.70;3.30;;;6.90;99.90;;;;;;5112081;28;20175;-51
2021/12/20 01:27:19;;;;;;;14.38;3.72;;;6.90;99.90;;;;;;5112281;28;20157;-51
2021/12/20 01:29:45;;;;;;;7.78;3.45;;;6.90;99.90;;;;;;5111971;28;20221;-51
2021/12/20 01:32:10;;;;;;;8.25;3.92;;;6.90;99.90;;;;;;5111948;28;20165;-51
2021/12/20 01:34:36;;;;;;;8.48;3.30;;;6.90;99.90;;;;;;5111925;28;20197;-51
2021/12/20 01:37:02;;;;;;;7.75;4.10;;;6.90;99.90;;;;;;5111916;28;20174;-51
2021/12/20 01:39:27;;;;;;;13.30;3.67;;;6.90;99.90;;;;;;5114601;27;20177;-51
2021/12/20 01:41:53;;;;;;;9.63;3.55;;;6.90;99.90;;;;;;5115968;28;20165;-51
2021/12/20 01:44:20;;;;;;;10.75;3.90;;;6.90;99.90;;;;;;5115688;28;20164;-51
2021/12/20 01:46:45;;;;;;;8.93;3.70;;;6.90;99.90;;;;;;5115898;28;20177;-51
2021/12/20 01:49:14;;;;;;;12.45;4.40;;;6.90;99.90;;;;;;5115827;28;20521;-51
2021/12/20 01:52:23;;;;;;;12.45;3.97;;;6.90;99.90;;;;;;5115534;28;20157;-51
2021/12/20 01:54:39;;;;;;;10.25;3.65;;;6.90;99.90;;;;;;5112118;28;20758;-52
2021/12/20 01:57:04;;;;;;;13.00;4.00;;;6.80;99.90;;;;;;5115475;28;20244;-52
2021/12/20 01:59:30;;;;;;;10.35;3.72;;;6.80;99.90;;;;;;5115380;28;20173;-50
2021/12/20 02:01:56;;;;;;;7.95;3.40;;;6.80;99.90;;;;;;5115983;28;20200;-51
2021/12/20 02:04:22;;;;;;;11.50;4.10;;;6.80;99.90;;;;;;5115208;28;20164;-51
2021/12/20 02:06:49;;;;;;;10.93;3.90;;;6.80;99.90;;;;;;5115244;28;20160;-51
2021/12/20 02:09:18;;;;;;;8.65;4.55;;;6.80;99.90;;;;;;5115168;28;20628;-50
2021/12/20 02:11:46;;;;;;;5.93;4.00;;;6.80;99.90;;;;;;5114881;28;20226;-51
2021/12/20 02:14:13;;;;;;;17.15;4.07;;;6.80;99.90;;;;;;5115173;28;20691;-52
2021/12/20 02:16:40;;;;;;;10.38;3.85;;;6.80;99.90;;;;;;5115001;28;20677;-51
2021/12/20 02:19:12;;;;;;;6.70;3.50;;;6.80;99.90;;;;;;5114902;28;20572;-51
2021/12/20 02:21:39;;;;;;;14.85;3.33;;;6.80;99.90;;;;;;5114931;28;20247;-51
2021/12/20 02:24:05;;;;;;;14.68;3.08;;;6.80;99.90;;;;;;5115288;28;20193;-50
2021/12/20 02:26:31;;;;;;;13.18;4.13;;;6.80;99.90;;;;;;5114846;28;20252;-51
2021/12/20 02:29:03;;;;;;;10.65;3.67;;;6.80;99.90;;;;;;5115127;28;20622;-51
2021/12/20 02:37:20;;;;;;;17.58;3.92;;;6.80;99.90;;;;;;5115161;28;20217;-51
2021/12/20 02:39:46;;;;;;;13.35;3.58;;;6.80;99.90;;;;;;5114552;28;20640;-51
2021/12/20 02:42:17;;;;;;;12.00;3.90;;;6.80;99.90;;;;;;5114597;28;20157;-50
2021/12/20 02:44:50;;;;;;;9.45;3.20;;;6.80;99.90;;;;;;5114758;28;20255;-49
2021/12/20 02:47:28;;;;;;;9.57;3.13;;;6.80;99.90;;;;;;5114440;28;20238;-49
2021/12/20 02:49:54;;;;;;;16.67;3.65;;;6.80;99.90;;;;;;5113777;28;20176;-49
2021/12/20 02:52:19;;;;;;;10.52;4.10;;;6.80;99.90;;;;;;5114207;28;20169;-50
2021/12/20 02:54:45;;;;;;;7.90;3.60;;;6.80;99.90;;;;;;5114293;28;20238;-51
2021/12/20 02:57:10;;;;;;;9.43;3.05;;;6.80;99.90;;;;;;5114336;28;20199;-51
2021/12/20 02:59:36;;;;;;;13.85;3.28;;;6.70;99.90;;;;;;5114171;28;20215;-50
2021/12/20 03:02:10;;;;;;;6.65;3.47;;;6.80;99.90;;;;;;5114420;28;20708;-49
2021/12/20 03:04:36;;;;;;;9.18;3.45;;;6.80;99.90;;;;;;5114347;28;20218;-50
2021/12/20 03:07:07;;;;;;;9.95;3.10;;;6.80;99.90;;;;;;5114305;28;20171;-49
2021/12/20 03:09:38;;;;;;;11.52;3.35;;;6.80;99.90;;;;;;5114038;28;20176;-50
2021/12/20 03:12:06;;;;;;;12.05;3.00;;;6.80;99.90;;;;;;5114248;28;20172;-49
2021/12/20 03:14:37;;;;;;;22.88;3.67;;;6.70;99.90;;;;;;5113863;28;20192;-49
2021/12/20 03:17:04;;;;;;;11.68;3.40;;;6.80;99.90;;;;;;5113804;28;20499;-49
2021/12/20 03:19:30;;;;;;;11.68;3.40;;;6.80;99.90;;;;;;5114133;28;20172;-49
2021/12/20 03:21:56;;;;;;;8.68;2.83;;;6.70;99.90;;;;;;5114074;28;20168;-49
2021/12/20 03:24:22;;;;;;;14.38;3.25;;;6.70;99.90;;;;;;5113749;28;20204;-51
2021/12/20 03:26:48;;;;;;;7.18;3.38;;;6.70;99.90;;;;;;5113639;28;20156;-51
2021/12/20 03:29:14;;;;;;;14.07;3.42;;;6.70;99.90;;;;;;5113586;28;20237;-51
2021/12/20 03:31:40;;;;;;;6.78;3.85;;;6.70;99.90;;;;;;5113551;28;20247;-51
2021/12/20 03:34:06;;;;;;;7.10;2.95;;;6.70;99.90;;;;;;5095186;28;20667;-51
2021/12/20 03:36:32;;;;;;;12.15;3.45;;;6.70;99.90;;;;;;5113807;28;20169;-51
2021/12/20 03:38:58;;;;;;;7.85;3.17;;;6.70;99.90;;;;;;5113744;28;20168;-51
2021/12/20 03:41:23;;;;;;;9.40;3.92;;;6.60;99.90;;;;;;5113330;28;20570;-52
2021/12/20 03:43:49;;;;;;;10.75;3.75;;;6.70;99.90;;;;;;5113362;28;20169;-51
2021/12/20 03:46:15;;;;;;;13.18;3.28;;;6.70;99.90;;;;;;5113597;28;20270;-51
2021/12/20 03:48:40;;;;;;;12.30;3.40;;;6.70;99.90;;;;;;5113296;28;20640;-52
2021/12/20 03:51:06;;;;;;;8.88;3.20;;;6.70;99.90;;;;;;5113206;28;20171;-51
2021/12/20 03:53:33;;;;;;;11.95;3.80;;;6.70;99.90;;;;;;5113184;28;20200;-51
2021/12/20 03:56:00;;;;;;;13.73;3.55;;;6.70;99.90;;;;;;5113665;28;20179;-51
2021/12/20 03:58:29;;;;;;;16.23;4.28;;;6.70;99.90;;;;;;5113311;28;20623;-52
2021/12/20 04:00:56;;;;;;;9.38;3.15;;;6.70;99.90;;;;;;5112915;28;20253;-52
2021/12/20 04:03:22;;;;;;;16.55;3.95;;;6.70;99.90;;;;;;5112994;28;20156;-51
2021/12/20 04:05:47;;;;;;;16.20;4.00;;;6.70;99.90;;;;;;5112846;28;20168;-52
2021/12/20 04:08:13;;;;;;;10.43;3.53;;;6.70;99.90;;;;;;5112898;28;20200;-51
2021/12/20 04:10:39;;;;;;;14.15;3.20;;;6.70;99.90;;;;;;5112739;28;20244;-51
2021/12/20 04:13:04;;;;;;;13.45;3.40;;;6.70;99.90;;;;;;5112697;28;20229;-51
2021/12/20 04:15:30;;;;;;;5.50;2.88;;;6.70;99.90;;;;;;5112978;28;20582;-50
2021/12/20 04:17:55;;;;;;;11.25;3.47;;;6.70;99.90;;;;;;5113251;28;20198;-51
2021/12/20 04:20:21;;;;;;;9.25;3.10;;;6.70;99.90;;;;;;5112679;28;20222;-49
2021/12/20 04:22:46;;;;;;;10.30;3.65;;;6.70;99.90;;;;;;5112600;28;20168;-49
2021/12/20 04:25:12;;;;;;;11.20;3.35;;;6.70;99.90;;;;;;5112622;28;20164;-50
2021/12/20 04:27:38;;;;;;;11.82;3.65;;;6.60;99.90;;;;;;5112609;28;20229;-49
2021/12/20 04:30:10;;;;;;;14.43;4.57;;;6.80;99.90;;;;;;5112818;28;20596;-50
2021/12/20 04:32:40;;;;;;;8.57;3.42;;;6.80;99.90;;;;;;5112436;28;20217;-50
2021/12/20 04:35:07;;;;;;;12.88;3.30;;;6.80;99.90;;;;;;5112466;28;20255;-51
2021/12/20 04:37:32;;;;;;;10.43;3.10;;;6.80;99.90;;;;;;5112411;28;20161;-51
2021/12/20 04:39:59;;;;;;;7.20;3.30;;;6.80;99.90;;;;;;5112733;28;20174;-51
2021/12/20 04:42:24;;;;;;;16.77;4.13;;;6.80;99.90;;;;;;5112651;28;20165;-51
2021/12/20 04:44:50;;;;;;;9.68;3.38;;;6.80;99.90;;;;;;5112382;28;20180;-51
2021/12/20 04:47:15;;;;;;;12.88;3.65;;;6.80;99.90;;;;;;5112273;28;20165;-51
2021/12/20 04:49:41;;;;;;;8.75;2.88;;;6.80;99.90;;;;;;5112234;28;20203;-51
2021/12/20 04:52:06;;;;;;;11.70;3.60;;;6.80;99.90;;;;;;5112011;28;20194;-51
2021/12/20 04:54:32;;;;;;;13.88;3.72;;;6.80;99.90;;;;;;5112335;28;20253;-51
2021/12/20 04:56:57;;;;;;;14.35;3.63;;;6.80;99.90;;;;;;5112855;28;20169;-51
2021/12/20 04:59:23;;;;;;;17.30;4.30;;;6.80;99.90;;;;;;5112107;28;20175;-50
2021/12/20 05:01:48;;;;;;;17.38;4.63;;;6.80;99.90;;;;;;5112254;28;20161;-51
2021/12/20 05:04:14;;;;;;;9.25;3.50;;;6.80;99.90;;;;;;5112158;28;20211;-51
2021/12/20 05:06:40;;;;;;;12.80;3.53;;;6.80;99.90;;;;;;5112313;28;20563;-51
2021/12/20 05:09:06;;;;;;;13.50;4.10;;;6.80;99.90;;;;;;5112134;28;20208;-49
2021/12/20 05:11:34;;;;;;;12.45;3.65;;;6.70;99.90;;;;;;5111990;28;20204;-51
2021/12/20 05:14:00;;;;;;;11.32;3.25;;;6.70;99.90;;;;;;5114433;28;20216;-51
2021/12/20 05:16:26;;;;;;;14.98;4.13;;;6.70;99.90;;;;;;5116520;28;20165;-51
2021/12/20 05:18:52;;;;;;;17.48;3.58;;;6.70;99.90;;;;;;5116149;28;20175;-51
2021/12/20 05:21:18;;;;;;;16.25;4.05;;;6.70;99.90;;;;;;5116146;28;20169;-51
2021/12/20 05:23:43;;;;;;;18.23;3.90;;;6.70;99.90;;;;;;5116158;28;20216;-51
2021/12/20 05:26:09;;;;;;;14.50;3.63;;;6.60;99.90;;;;;;5116083;28;20205;-51
2021/12/20 05:28:34;;;;;;;16.42;4.50;;;6.70;99.90;;;;;;5116076;28;20234;-51
2021/12/20 05:31:00;;;;;;;11.52;3.50;;;6.70;99.90;;;;;;5116022;28;20165;-51
2021/12/20 05:33:26;;;;;;;14.25;3.33;;;6.60;99.90;;;;;;5116249;28;20617;-51
2021/12/20 05:35:52;;;;;;;11.57;3.25;;;6.70;99.90;;;;;;5115764;28;20644;-50
2021/12/20 05:38:18;;;;;;;15.75;5.88;;;6.70;99.90;;;;;;5115733;28;20172;-51
2021/12/20 05:40:43;;;;;;;10.07;3.70;;;6.70;99.90;;;;;;5115701;28;20225;-50
2021/12/20 05:43:09;;;;;;;12.27;3.75;;;6.60;99.90;;;;;;5115090;28;20176;-52
2021/12/20 05:45:34;;;;;;;20.67;4.45;;;6.70;99.90;;;;;;5115570;28;20241;-50
2021/12/20 05:48:02;;;;;;;13.27;3.22;;;6.70;99.90;;;;;;5115668;28;20616;-50
2021/12/20 05:50:27;;;;;;;14.25;3.65;;;6.70;99.90;;;;;;5115679;28;20651;-50
2021/12/20 05:52:53;;;;;;;12.40;3.83;;;6.70;99.90;;;;;;5115682;28;20173;-49
2021/12/20 05:55:18;;;;;;;12.90;3.78;;;6.70;99.90;;;;;;5115614;28;20252;-51
2021/12/20 05:57:45;;;;;;;13.18;4.30;;;6.70;99.90;;;;;;5115125;28;20642;-51
2021/12/20 06:00:18;;;;;;;14.25;3.63;;;6.70;99.90;;;;;;5115214;28;20180;-50
2021/12/20 06:02:45;;;;;;;13.90;4.07;;;6.70;99.90;;;;;;5115645;28;20164;-50
2021/12/20 06:05:11;;;;;;;13.85;3.78;;;6.70;99.90;;;;;;5115324;28;20187;-50
2021/12/20 06:07:40;;;;;;;12.38;4.00;;;6.70;99.90;;;;;;5115018;28;20173;-49
2021/12/20 06:10:08;;;;;;;12.13;4.38;;;6.70;99.90;;;;;;5115159;28;20295;-51
2021/12/20 06:12:35;;;;;;;19.08;4.38;;;6.70;99.90;;;;;;5114988;28;20511;-49
2021/12/20 06:15:01;;;;;;;14.10;4.45;;;6.70;99.90;;;;;;5115281;28;20235;-49
2021/12/20 06:17:27;;;;;;;18.73;4.60;;;6.70;99.90;;;;;;5114992;28;20192;-50
2021/12/20 06:19:52;;;;;;;13.82;4.18;;;6.70;99.90;;;;;;5114964;28;20235;-50
2021/12/20 06:22:18;;;;;;;11.95;3.90;;;6.70;99.90;;;;;;5114959;28;20236;-51
2021/12/20 06:24:43;;;;;;;11.77;3.83;;;6.70;99.90;;;;;;5113927;27;20199;-51
2021/12/20 06:27:09;;;;;;;16.17;3.95;;;6.70;99.90;;;;;;5114589;28;20646;-49
2021/12/20 06:29:34;;;;;;;14.57;4.10;;;6.60;99.90;;;;;;5114842;28;20175;-50
2021/12/20 06:32:00;;;;;;;14.30;4.22;;;6.60;99.90;;;;;;5114814;28;20172;-50
2021/12/20 06:34:25;;;;;;;13.15;3.92;;;6.70;99.90;;;;;;5115081;28;20687;-49
2021/12/20 06:36:51;;;;;;;14.70;4.20;;;6.60;99.90;;;;;;5114638;28;20243;-49
2021/12/20 06:39:17;;;;;;;12.68;3.70;;;6.60;99.90;;;;;;5114521;28;20195;-49
2021/12/20 06:41:43;;;;;;;16.90;4.85;;;6.70;99.90;;;;;;5114567;28;20152;-49
2021/12/20 06:44:08;;;;;;;17.38;4.85;;;6.60;99.90;;;;;;5114760;28;20230;-50
2021/12/20 06:46:43;;;;;;;19.05;3.45;;;6.70;99.90;;;;;;5114761;28;20173;-49
2021/12/20 06:49:10;;;;;;;25.90;5.40;;;6.60;99.90;;;;;;5114458;28;20199;-49
2021/12/20 06:51:41;;;;;;;18.55;5.03;;;6.60;99.90;;;;;;5114381;28;20612;-50
2021/12/20 06:54:16;;;;;;;13.27;3.88;;;6.60;99.90;;;;;;5114100;28;20668;-49
2021/12/20 06:56:43;;;;;;;17.02;3.97;;;6.60;99.90;;;;;;5114190;27;20167;-49
2021/12/20 06:59:09;;;;;;;11.35;4.03;;;6.50;99.90;;;;;;5114235;28;20186;-49
2021/12/20 07:01:36;;;;;;;18.50;4.80;;;6.60;99.90;;;;;;5114150;28;20176;-50
2021/12/20 07:04:02;;;;;;;15.90;4.93;;;6.60;99.90;;;;;;5114428;28;20175;-50
2021/12/20 07:06:28;;;;;;;14.85;4.32;;;6.50;99.90;;;;;;5114597;28;20168;-50
2021/12/20 07:08:54;;;;;;;17.30;4.70;;;6.50;99.90;;;;;;5114154;28;20250;-50
2021/12/20 07:11:20;;;;;;;17.40;3.70;;;6.50;99.90;;;;;;5113782;28;20212;-50
2021/12/20 07:13:45;;;;;;;15.73;4.45;;;6.60;99.90;;;;;;5113779;28;20203;-50
2021/12/20 07:16:12;;;;;;;13.70;3.70;;;6.50;99.90;;;;;;5114222;28;20176;-49
2021/12/20 07:18:38;;;;;;;15.52;3.97;;;6.50;99.90;;;;;;5113784;28;20623;-51
2021/12/20 07:21:03;;;;;;;11.68;3.75;;;6.50;99.90;;;;;;5113843;28;20175;-51
2021/12/20 07:23:29;;;;;;;16.52;3.90;;;6.50;99.90;;;;;;5114054;28;20212;-51
2021/12/20 07:25:54;;;;;;;14.23;4.25;;;6.50;99.90;;;;;;5113987;28;20169;-51
2021/12/20 07:28:20;;;;;;;22.45;4.93;;;6.50;99.90;;;;;;5113604;28;20175;-51
2021/12/20 07:30:48;;;;;;;18.98;4.25;;;6.50;99.90;;;;;;5113611;28;20161;-51
2021/12/20 07:33:15;;;;;;;15.32;4.30;;;6.50;99.90;;;;;;5113548;28;20201;-51
2021/12/20 07:35:41;;;;;;;19.27;4.60;;;6.40;99.90;;;;;;5113621;28;20581;-51
2021/12/20 07:38:11;;;;;;;15.95;4.38;;;6.40;99.90;;;;;;5113282;28;20165;-51
2021/12/20 07:40:37;;;;;;;14.48;3.83;;;6.40;99.90;;;;;;5113420;28;20156;-50
2021/12/20 07:43:02;;;;;;;16.08;4.07;;;6.40;99.90;;;;;;5113361;28;20213;-49
2021/12/20 07:45:28;;;;;;;14.70;4.53;;;6.40;99.90;;;;;;5113603;28;20165;-49
2021/12/20 07:47:54;;;;;;;16.65;4.55;;;6.40;99.90;;;;;;5113259;28;20165;-50
2021/12/20 07:50:21;;;;;;;12.00;4.22;;;6.50;99.90;;;;;;5113556;28;20176;-49
2021/12/20 07:52:47;;;;;;;16.98;4.65;;;6.50;99.90;;;;;;5113351;28;20221;-51
2021/12/20 07:55:12;;;;;;;20.73;4.53;;;6.50;99.90;;;;;;5113206;28;20624;-49
2021/12/20 07:57:38;;;;;;;16.65;4.97;;;6.50;99.90;;;;;;5113199;28;20179;-51
2021/12/20 08:00:06;;;;;;;14.60;4.45;;;6.50;99.90;;;;;;5113160;28;20179;-49
2021/12/20 08:02:32;;;;;;;19.88;5.22;;;6.50;99.90;;;;;;5112918;28;20523;-49
2021/12/20 08:04:57;;;;;;;20.65;4.82;;;6.50;99.90;;;;;;5113382;28;20164;-46
2021/12/20 08:07:23;;;;;;;12.63;3.85;;;6.50;99.90;;;;;;5113270;28;20558;-48
2021/12/20 08:09:49;;;;;;;16.92;4.22;;;6.50;99.90;;;;;;5112704;28;20240;-48
2021/12/20 08:12:15;;;;;;;15.25;3.47;;;6.40;99.90;;;;;;5113140;28;20179;-48
2021/12/20 08:14:41;;;;;;;17.85;5.28;;;6.40;99.90;;;;;;5113010;28;20291;-48
2021/12/20 08:17:07;;;;;;;19.95;4.20;;;6.40;99.90;;;;;;5113058;28;20197;-49
2021/12/20 08:19:33;;;;;;;22.45;4.63;;;6.40;99.90;;;;;;5112832;28;20595;-48
2021/12/20 08:21:58;;;;;;;14.25;3.78;;;6.40;99.90;;;;;;5113042;28;20585;-49
2021/12/20 08:24:24;;;;;;;15.90;4.35;;;6.50;99.90;;;;;;5112760;28;20533;-50
2021/12/20 08:26:49;;;;;;;21.50;3.97;;;7.00;99.90;;;;;;5112629;28;20172;-49
2021/12/20 08:29:15;;;;;;;14.52;4.00;;;6.50;99.90;;;;;;5112569;28;20169;-48
2021/12/20 08:31:41;;;;;;;18.10;5.03;;;6.50;99.90;;;;;;5112814;28;20169;-49
2021/12/20 08:34:06;;;;;;;18.73;3.92;;;6.40;99.90;;;;;;5112616;28;20252;-49
2021/12/20 08:36:32;;;;;;;24.58;4.03;;;6.50;99.90;;;;;;5112501;28;20252;-49
2021/12/20 08:38:57;;;;;;;19.33;4.43;;;6.50;99.90;;;;;;5112660;28;20555;-48
2021/12/20 08:41:23;;;;;;;15.43;4.13;;;6.50;99.90;;;;;;5112371;28;20198;-50
2021/12/20 08:43:49;;;;;;;24.85;4.35;;;6.50;99.90;;;;;;5112424;28;20242;-50
2021/12/20 08:46:15;;;;;;;17.08;4.75;;;6.50;99.90;;;;;;5112388;28;20169;-50
2021/12/20 08:48:42;;;;;;;24.48;4.45;;;6.60;99.90;;;;;;5111417;28;20306;-51
2021/12/20 08:51:08;;;;;;;19.27;4.40;;;6.50;99.90;;;;;;5112279;28;20184;-50
2021/12/20 08:53:34;;;;;;;17.75;3.67;;;6.50;99.90;;;;;;5112087;28;20891;-50
2021/12/20 08:56:00;;;;;;;15.57;4.53;;;6.50;99.90;;;;;;5112609;28;20635;-49
2021/12/20 08:58:26;;;;;;;14.98;3.70;;;6.60;99.90;;;;;;5112505;28;20582;-50
2021/12/20 09:00:52;;;;;;;20.00;3.63;;;6.60;99.90;;;;;;5112251;28;20169;-50
2021/12/20 09:03:18;;;;;;;18.33;4.82;;;6.60;99.90;;;;;;5112177;28;20165;-50
2021/12/20 09:05:43;;;;;;;14.35;4.20;;;6.60;99.90;;;;;;5112200;28;20254;-50
2021/12/20 09:08:10;;;;;;;19.30;4.28;;;6.70;99.90;;;;;;5112212;28;20273;-51
2021/12/20 09:10:37;;;;;;;20.27;4.50;;;6.70;99.90;;;;;;5112006;28;20208;-51
2021/12/20 09:13:03;;;;;;;23.42;4.78;;;6.80;99.90;;;;;;5112044;28;20587;-51
2021/12/20 09:15:29;;;;;;;19.60;5.10;;;6.80;99.90;;;;;;5112404;28;20164;-51
2021/12/20 09:17:55;;;;;;;21.75;4.55;;;7.80;99.90;;;;;;5112596;28;20176;-51
2021/12/20 09:20:23;;;;;;;14.07;3.80;;;6.80;99.90;;;;;;5112038;28;20165;-50
2021/12/20 09:22:51;;;;;;;18.98;5.13;;;6.80;99.90;;;;;;5112300;28;20567;-50
2021/12/20 09:25:22;;;;;;;23.88;4.65;;;6.80;99.90;;;;;;5112254;28;20538;-50
2021/12/20 09:27:48;;;;;;;19.98;4.70;;;6.90;99.90;;;;;;5112121;28;20176;-51
2021/12/20 09:30:14;;;;;;;18.50;5.40;;;6.90;99.90;;;;;;5111981;28;20200;-50
2021/12/20 09:32:40;;;;;;;21.88;5.15;;;7.10;99.90;;;;;;5112118;28;20161;-51
2021/12/20 09:35:06;;;;;;;19.75;5.32;;;7.00;99.90;;;;;;5111886;28;20564;-49
2021/12/20 09:37:32;;;;;;;20.73;5.07;;;7.00;99.90;;;;;;5112202;28;20169;-48
2021/12/20 09:39:59;;;;;;;20.75;5.38;;;7.00;99.90;;;;;;5112442;28;20175;-51
2021/12/20 09:42:26;;;;;;;20.80;5.05;;;7.00;99.90;;;;;;5112413;28;20161;-50
2021/12/20 09:44:53;;;;;;;25.48;6.15;;;7.00;99.90;;;;;;5111837;28;20244;-50
2021/12/20 09:47:19;;;;;;;15.82;4.68;;;7.20;99.90;;;;;;5112124;28;20176;-49
2021/12/20 09:49:44;;;;;;;29.38;9.23;;;7.20;99.90;;;;;;5111906;28;20177;-49
2021/12/20 09:52:10;;;;;;;27.30;7.03;;;7.20;99.90;;;;;;5111812;28;20648;-50
2021/12/20 09:54:38;;;;;;;24.85;5.38;;;7.20;99.90;;;;;;5111753;28;20211;-51
2021/12/20 09:57:08;;;;;;;21.90;5.72;;;7.10;99.90;;;;;;5111641;28;20577;-49
2021/12/20 09:59:37;;;;;;;30.48;11.38;;;7.30;99.90;;;;;;5112667;28;20169;-51
2021/12/20 10:02:07;;;;;;;103.53;49.78;;;7.30;99.90;;;;;;5115324;28;20247;-49
2021/12/20 10:04:34;;;;;;;67.22;33.80;;;7.40;99.90;;;;;;5115243;28;20559;-52
2021/12/20 10:07:01;;;;;;;54.72;27.50;;;7.30;99.90;;;;;;5115677;28;20157;-51
2021/12/20 10:09:32;;;;;;;29.30;9.55;;;7.50;99.90;;;;;;5115388;28;20249;-51
2021/12/20 10:12:21;;;;;;;48.08;25.08;;;7.40;99.90;;;;;;5097232;28;20180;-51
2021/12/20 10:14:50;;;;;;;34.35;18.42;;;7.40;99.90;;;;;;5115243;28;20208;-51
2021/12/20 10:17:15;;;;;;;30.52;8.70;;;7.50;99.90;;;;;;5114994;28;20184;-51
2021/12/20 10:19:41;;;;;;;25.75;6.63;;;7.40;99.90;;;;;;5115175;28;20625;-51
2021/12/20 10:22:28;;;;;;;32.70;11.05;;;7.40;99.90;;;;;;5115136;28;20169;-51
2021/12/20 10:24:56;;;;;;;29.90;7.97;;;7.40;99.90;;;;;;5115219;28;20172;-50
2021/12/20 10:27:36;;;;;;;23.80;10.15;;;7.40;99.90;;;;;;5114772;28;20632;-51
2021/12/20 10:30:27;;;;;;;26.08;14.27;;;7.50;99.90;;;;;;5114511;28;20203;-50
2021/12/20 10:32:54;;;;;;;24.48;9.75;;;7.70;99.90;;;;;;5114883;28;20161;-51
2021/12/20 10:35:25;;;;;;;64.22;29.73;;;7.60;99.90;;;;;;5114719;28;20208;-51
2021/12/20 10:37:53;;;;;;;65.75;39.10;;;7.70;99.90;;;;;;5114750;28;20591;-52
2021/12/20 10:40:19;;;;;;;89.00;42.78;;;7.80;99.90;;;;;;5114684;28;20632;-51
2021/12/20 10:42:44;;;;;;;31.33;14.00;;;7.70;99.90;;;;;;5114700;28;20181;-51
2021/12/20 10:45:14;;;;;;;55.92;28.63;;;7.70;99.90;;;;;;5114835;28;20164;-51
2021/12/20 10:47:41;;;;;;;58.20;30.40;;;7.80;99.90;;;;;;5114926;28;20175;-51
2021/12/20 10:50:20;;;;;;;25.40;9.05;;;7.90;99.90;;;;;;5114813;28;20169;-51
2021/12/20 10:52:46;;;;;;;22.00;7.13;;;7.80;99.90;;;;;;5114542;28;20165;-51
2021/12/20 10:55:12;;;;;;;30.15;10.05;;;7.90;99.90;;;;;;5114356;28;20197;-51
2021/12/20 10:57:37;;;;;;;34.13;7.82;;;7.90;99.90;;;;;;5114495;28;20156;-51
2021/12/20 11:00:17;;;;;;;20.77;5.80;;;8.00;99.90;;;;;;5114379;28;20636;-49
2021/12/20 11:03:24;;;;;;;23.42;6.47;;;8.00;99.90;;;;;;5114177;28;20160;-48
2021/12/20 11:06:14;;;;;;;33.50;7.40;;;7.90;99.90;;;;;;5113989;28;20641;-50
2021/12/20 11:11:24;;;;;;;29.80;9.10;;;8.10;99.90;;;;;;5113134;28;20238;-48
2021/12/20 11:13:50;;;;;;;26.52;9.82;;;8.10;99.90;;;;;;5113152;28;20219;-48
2021/12/20 11:16:35;;;;;;;26.63;7.57;;;8.20;99.90;;;;;;5095583;28;20168;-48
2021/12/20 11:19:12;;;;;;;25.50;6.60;;;8.30;99.90;;;;;;5113465;28;20156;-49
2021/12/20 11:21:58;;;;;;;31.10;13.25;;;8.20;99.90;;;;;;5113826;28;20658;-48
2021/12/20 11:24:43;;;;;;;31.75;9.88;;;8.30;99.90;;;;;;5113546;28;20169;-49
2021/12/20 11:27:17;;;;;;;40.47;18.67;;;8.30;99.90;;;;;;5114079;28;20251;-48
2021/12/20 11:29:44;;;;;;;25.77;5.80;;;8.30;99.90;;;;;;5113389;28;20171;-49
2021/12/20 11:32:10;;;;;;;18.50;4.35;;;8.30;99.90;;;;;;5113632;28;20167;-48
2021/12/20 11:34:38;;;;;;;21.83;4.13;;;8.20;99.90;;;;;;5113399;28;20537;-49
2021/12/20 11:37:03;;;;;;;13.43;3.58;;;8.10;99.90;;;;;;5113433;28;20501;-49
2021/12/20 11:39:29;;;;;;;23.45;4.90;;;8.10;99.90;;;;;;5113472;28;20168;-48
2021/12/20 11:41:54;;;;;;;17.70;3.35;;;8.10;99.90;;;;;;5113288;28;20192;-49
2021/12/20 11:44:24;;;;;;;11.70;3.22;;;8.10;99.90;;;;;;5113084;28;20210;-49
2021/12/20 11:47:07;;;;;;;13.20;3.53;;;8.10;99.90;;;;;;5113422;28;20217;-48
2021/12/20 11:49:34;;;;;;;19.73;4.07;;;8.10;99.90;;;;;;5113276;28;20636;-49
2021/12/20 11:52:14;;;;;;;14.15;3.05;;;8.10;99.90;;;;;;5113511;28;20168;-48
2021/12/20 11:54:50;;;;;;;14.55;5.43;;;8.10;99.90;;;;;;5113142;28;20210;-48
2021/12/20 11:57:45;;;;;;;12.50;3.03;;;8.10;99.90;;;;;;5113277;28;20168;-49
2021/12/20 12:00:27;;;;;;;19.95;9.95;;;8.20;99.90;;;;;;5111628;28;20185;-48
2021/12/20 12:03:00;;;;;;;16.08;6.05;;;8.10;99.90;;;;;;5113108;28;20156;-48
2021/12/20 12:05:34;;;;;;;14.23;2.83;;;8.00;99.90;;;;;;5113390;28;20729;-47
2021/12/20 12:08:23;;;;;;;19.15;3.80;;;8.00;99.90;;;;;;5113198;28;20160;-49
2021/12/20 12:10:50;;;;;;;21.88;6.72;;;7.90;99.90;;;;;;5112707;28;20200;-48
2021/12/20 12:13:17;;;;;;;13.05;3.53;;;7.90;99.90;;;;;;5112969;28;20203;-48
2021/12/20 12:16:01;;;;;;;15.85;3.08;;;7.90;99.90;;;;;;5112637;28;20164;-47
2021/12/20 12:18:47;;;;;;;17.42;5.38;;;7.80;99.90;;;;;;5113393;28;20213;-48
2021/12/20 12:21:31;;;;;;;12.13;4.60;;;6.90;99.90;;;;;;5112572;28;20229;-49
2021/12/20 12:23:57;;;;;;;13.32;3.08;;;7.80;99.90;;;;;;5113140;28;20187;-48
2021/12/20 12:26:39;;;;;;;14.35;4.70;;;7.80;99.90;;;;;;5112581;28;20532;-48
2021/12/20 12:29:06;;;;;;;17.50;4.63;;;7.80;99.90;;;;;;5112727;28;20168;-49
2021/12/20 12:31:53;;;;;;;16.58;3.88;;;7.70;99.90;;;;;;5112748;28;20243;-49
2021/12/20 12:34:19;;;;;;;16.80;3.60;;;7.70;99.90;;;;;;5112731;28;20260;-49
2021/12/20 12:36:46;;;;;;;12.82;3.25;;;7.80;99.90;;;;;;5112651;28;20161;-51
2021/12/20 12:39:21;;;;;;;14.75;3.20;;;7.80;99.90;;;;;;5112814;28;20580;-49
2021/12/20 12:41:49;;;;;;;15.85;4.57;;;7.70;99.90;;;;;;5112786;28;20171;-51
2021/12/20 12:44:21;;;;;;;12.13;3.40;;;7.60;99.90;;;;;;5112330;28;20173;-49
2021/12/20 12:46:53;;;;;;;13.65;5.20;;;7.70;99.90;;;;;;5112600;28;20184;-49
2021/12/20 12:49:22;;;;;;;18.33;7.10;;;7.60;99.90;;;;;;5112713;28;20165;-49
2021/12/20 12:51:50;;;;;;;11.70;3.78;;;7.60;99.90;;;;;;5112820;28;20165;-47
2021/12/20 12:54:33;;;;;;;12.65;3.10;;;7.50;99.90;;;;;;5112511;28;20265;-49
2021/12/20 12:57:11;;;;;;;18.05;4.32;;;7.40;99.90;;;;;;5112723;28;20175;-49
2021/12/20 12:59:58;;;;;;;13.48;2.97;;;7.40;99.90;;;;;;5112305;28;20165;-49
2021/12/20 13:02:29;;;;;;;12.98;3.55;;;7.30;99.90;;;;;;5111952;28;20184;-49
2021/12/20 13:05:06;;;;;;;8.32;2.55;;;7.30;99.90;;;;;;5112296;28;20182;-50